sensor_id;sensor_type;location;lat;lon;timestamp;temperature;humidity
9057;DHT22;4563;54.756;9.400;2022-08-07T00:00:09;17.90;57.70
9057;DHT22;4563;54.756;9.400;2022-08-07T00:02:36;17.90;57.80
9057;DHT22;4563;54.756;9.400;2022-08-07T00:05:05;17.90;57.80
9057;DHT22;4563;54.756;9.400;2022-08-07T00:07:33;17.80;58.10
9057;DHT22;4563;54.756;9.400;2022-08-07T00:10:00;17.70;57.90
9057;DHT22;4563;54.756;9.400;2022-08-07T00:12:27;17.70;57.90
9057;DHT22;4563;54.756;9.400;2022-08-07T00:14:58;17.70;57.90
9057;DHT22;4563;54.756;9.400;2022-08-07T00:17:25;17.70;58.00
9057;DHT22;4563;54.756;9.400;2022-08-07T00:19:55;17.60;58.00
9057;DHT22;4563;54.756;9.400;2022-08-07T00:22:24;17.60;58.20
9057;DHT22;4563;54.756;9.400;2022-08-07T00:24:58;17.60;58.10
9057;DHT22;4563;54.756;9.400;2022-08-07T00:27:35;17.50;58.20
9057;DHT22;4563;54.756;9.400;2022-08-07T00:30:20;17.50;58.30
9057;DHT22;4563;54.756;9.400;2022-08-07T00:32:53;17.50;58.20
9057;DHT22;4563;54.756;9.400;2022-08-07T00:35:36;17.50;58.30
9057;DHT22;4563;54.756;9.400;2022-08-07T00:38:19;17.40;58.20
9057;DHT22;4563;54.756;9.400;2022-08-07T00:41:01;17.40;58.30
9057;DHT22;4563;54.756;9.400;2022-08-07T00:43:43;17.30;58.30
9057;DHT22;4563;54.756;9.400;2022-08-07T00:46:16;17.30;58.30
9057;DHT22;4563;54.756;9.400;2022-08-07T00:48:58;17.30;58.40
9057;DHT22;4563;54.756;9.400;2022-08-07T00:51:44;17.30;58.40
9057;DHT22;4563;54.756;9.400;2022-08-07T00:54:22;17.20;58.50
9057;DHT22;4563;54.756;9.400;2022-08-07T00:56:55;17.20;58.50
9057;DHT22;4563;54.756;9.400;2022-08-07T00:59:26;17.20;58.60
9057;DHT22;4563;54.756;9.400;2022-08-07T01:05:19;17.20;58.60
9057;DHT22;4563;54.756;9.400;2022-08-07T01:07:55;17.10;58.60
9057;DHT22;4563;54.756;9.400;2022-08-07T01:10:33;17.10;58.50
9057;DHT22;4563;54.756;9.400;2022-08-07T01:13:34;17.10;58.70
9057;DHT22;4563;54.756;9.400;2022-08-07T01:16:17;17.00;58.50
9057;DHT22;4563;54.756;9.400;2022-08-07T01:18:48;17.00;58.70
9057;DHT22;4563;54.756;9.400;2022-08-07T01:21:48;17.00;58.70
9057;DHT22;4563;54.756;9.400;2022-08-07T01:24:20;16.90;58.60
9057;DHT22;4563;54.756;9.400;2022-08-07T01:27:00;17.00;58.70
9057;DHT22;4563;54.756;9.400;2022-08-07T01:29:41;16.90;58.70
9057;DHT22;4563;54.756;9.400;2022-08-07T01:35:28;16.90;58.80
9057;DHT22;4563;54.756;9.400;2022-08-07T01:44:03;16.80;58.90
9057;DHT22;4563;54.756;9.400;2022-08-07T01:46:30;16.80;59.00
9057;DHT22;4563;54.756;9.400;2022-08-07T01:48:57;16.70;58.90
9057;DHT22;4563;54.756;9.400;2022-08-07T01:51:24;16.70;59.00
9057;DHT22;4563;54.756;9.400;2022-08-07T01:53:54;16.70;59.00
9057;DHT22;4563;54.756;9.400;2022-08-07T01:56:25;16.70;59.10
9057;DHT22;4563;54.756;9.400;2022-08-07T01:58:58;16.60;59.10
9057;DHT22;4563;54.756;9.400;2022-08-07T02:01:32;16.60;59.10
9057;DHT22;4563;54.756;9.400;2022-08-07T02:04:06;16.60;59.20
9057;DHT22;4563;54.756;9.400;2022-08-07T02:06:35;16.60;59.30
9057;DHT22;4563;54.756;9.400;2022-08-07T02:09:05;16.60;59.30
9057;DHT22;4563;54.756;9.400;2022-08-07T02:11:37;16.50;59.10
9057;DHT22;4563;54.756;9.400;2022-08-07T02:14:05;16.50;59.10
9057;DHT22;4563;54.756;9.400;2022-08-07T02:16:35;16.50;59.20
9057;DHT22;4563;54.756;9.400;2022-08-07T02:19:05;16.50;59.30
9057;DHT22;4563;54.756;9.400;2022-08-07T02:21:33;16.40;59.20
9057;DHT22;4563;54.756;9.400;2022-08-07T02:24:01;16.40;59.30
9057;DHT22;4563;54.756;9.400;2022-08-07T02:26:29;16.40;59.40
9057;DHT22;4563;54.756;9.400;2022-08-07T02:28:56;16.40;59.40
9057;DHT22;4563;54.756;9.400;2022-08-07T02:31:24;16.40;59.40
9057;DHT22;4563;54.756;9.400;2022-08-07T02:33:53;16.40;59.50
9057;DHT22;4563;54.756;9.400;2022-08-07T02:36:21;16.30;59.40
9057;DHT22;4563;54.756;9.400;2022-08-07T02:38:50;16.30;59.50
9057;DHT22;4563;54.756;9.400;2022-08-07T02:41:18;16.30;59.50
9057;DHT22;4563;54.756;9.400;2022-08-07T02:43:46;16.30;59.50
9057;DHT22;4563;54.756;9.400;2022-08-07T02:46:15;16.20;60.10
9057;DHT22;4563;54.756;9.400;2022-08-07T02:48:43;16.30;59.60
9057;DHT22;4563;54.756;9.400;2022-08-07T02:51:15;16.20;59.60
9057;DHT22;4563;54.756;9.400;2022-08-07T02:53:44;16.20;59.70
9057;DHT22;4563;54.756;9.400;2022-08-07T02:56:20;16.20;59.70
9057;DHT22;4563;54.756;9.400;2022-08-07T02:58:49;16.10;59.60
9057;DHT22;4563;54.756;9.400;2022-08-07T03:01:17;16.10;59.70
9057;DHT22;4563;54.756;9.400;2022-08-07T03:03:47;16.10;59.70
9057;DHT22;4563;54.756;9.400;2022-08-07T03:06:17;16.10;59.80
9057;DHT22;4563;54.756;9.400;2022-08-07T03:08:45;16.10;59.80
9057;DHT22;4563;54.756;9.400;2022-08-07T03:11:14;16.00;59.70
9057;DHT22;4563;54.756;9.400;2022-08-07T03:13:41;16.10;59.80
9057;DHT22;4563;54.756;9.400;2022-08-07T03:16:09;16.00;59.70
9057;DHT22;4563;54.756;9.400;2022-08-07T03:18:37;16.00;60.40
9057;DHT22;4563;54.756;9.400;2022-08-07T03:21:05;16.00;59.80
9057;DHT22;4563;54.756;9.400;2022-08-07T03:23:34;16.00;59.80
9057;DHT22;4563;54.756;9.400;2022-08-07T03:26:03;16.00;59.90
9057;DHT22;4563;54.756;9.400;2022-08-07T03:28:33;16.00;59.80
9057;DHT22;4563;54.756;9.400;2022-08-07T03:31:02;16.00;59.90
9057;DHT22;4563;54.756;9.400;2022-08-07T03:33:47;16.00;59.80
9057;DHT22;4563;54.756;9.400;2022-08-07T03:36:15;16.00;59.80
9057;DHT22;4563;54.756;9.400;2022-08-07T03:38:45;16.00;59.80
9057;DHT22;4563;54.756;9.400;2022-08-07T03:41:13;16.00;59.80
9057;DHT22;4563;54.756;9.400;2022-08-07T03:43:41;16.00;59.90
9057;DHT22;4563;54.756;9.400;2022-08-07T03:46:10;16.00;60.00
9057;DHT22;4563;54.756;9.400;2022-08-07T03:48:39;16.00;60.00
9057;DHT22;4563;54.756;9.400;2022-08-07T03:51:07;16.00;60.10
9057;DHT22;4563;54.756;9.400;2022-08-07T03:53:34;16.00;60.20
9057;DHT22;4563;54.756;9.400;2022-08-07T03:56:02;16.00;60.20
9057;DHT22;4563;54.756;9.400;2022-08-07T03:58:30;16.00;60.30
9057;DHT22;4563;54.756;9.400;2022-08-07T04:00:58;16.00;60.40
9057;DHT22;4563;54.756;9.400;2022-08-07T04:03:25;16.00;60.40
9057;DHT22;4563;54.756;9.400;2022-08-07T04:05:52;16.00;60.40
9057;DHT22;4563;54.756;9.400;2022-08-07T04:08:19;16.00;60.40
9057;DHT22;4563;54.756;9.400;2022-08-07T04:10:47;16.10;60.60
9057;DHT22;4563;54.756;9.400;2022-08-07T04:13:15;16.10;60.50
9057;DHT22;4563;54.756;9.400;2022-08-07T04:15:43;16.10;60.70
9057;DHT22;4563;54.756;9.400;2022-08-07T04:18:11;16.10;60.70
9057;DHT22;4563;54.756;9.400;2022-08-07T04:20:39;16.10;60.70
9057;DHT22;4563;54.756;9.400;2022-08-07T04:23:07;16.10;60.70
9057;DHT22;4563;54.756;9.400;2022-08-07T04:25:35;16.10;60.80
9057;DHT22;4563;54.756;9.400;2022-08-07T04:28:04;16.10;60.90
9057;DHT22;4563;54.756;9.400;2022-08-07T04:30:32;16.10;61.00
9057;DHT22;4563;54.756;9.400;2022-08-07T04:33:00;16.10;61.20
9057;DHT22;4563;54.756;9.400;2022-08-07T04:35:31;16.10;61.20
9057;DHT22;4563;54.756;9.400;2022-08-07T04:37:57;16.20;61.30
9057;DHT22;4563;54.756;9.400;2022-08-07T04:40:25;16.20;61.40
9057;DHT22;4563;54.756;9.400;2022-08-07T04:42:52;16.20;61.40
9057;DHT22;4563;54.756;9.400;2022-08-07T04:45:19;16.20;61.60
9057;DHT22;4563;54.756;9.400;2022-08-07T04:47:54;16.20;61.80
9057;DHT22;4563;54.756;9.400;2022-08-07T04:50:33;16.20;61.90
9057;DHT22;4563;54.756;9.400;2022-08-07T04:53:06;16.20;62.10
9057;DHT22;4563;54.756;9.400;2022-08-07T04:55:42;16.20;62.20
9057;DHT22;4563;54.756;9.400;2022-08-07T04:58:16;16.20;62.30
9057;DHT22;4563;54.756;9.400;2022-08-07T05:00:48;16.20;62.40
9057;DHT22;4563;54.756;9.400;2022-08-07T05:03:20;16.30;62.70
9057;DHT22;4563;54.756;9.400;2022-08-07T05:05:53;16.30;62.80
9057;DHT22;4563;54.756;9.400;2022-08-07T05:08:28;16.30;63.00
9057;DHT22;4563;54.756;9.400;2022-08-07T05:11:04;16.30;63.00
9057;DHT22;4563;54.756;9.400;2022-08-07T05:13:38;16.30;63.10
9057;DHT22;4563;54.756;9.400;2022-08-07T05:16:09;16.30;63.20
9057;DHT22;4563;54.756;9.400;2022-08-07T05:18:46;16.40;63.20
9057;DHT22;4563;54.756;9.400;2022-08-07T05:21:16;16.40;63.10
9057;DHT22;4563;54.756;9.400;2022-08-07T05:23:48;16.40;63.30
9057;DHT22;4563;54.756;9.400;2022-08-07T05:26:19;16.40;63.40
9057;DHT22;4563;54.756;9.400;2022-08-07T05:28:49;16.50;63.40
9057;DHT22;4563;54.756;9.400;2022-08-07T05:31:18;16.40;63.40
9057;DHT22;4563;54.756;9.400;2022-08-07T05:33:48;16.40;63.20
9057;DHT22;4563;54.756;9.400;2022-08-07T05:36:17;16.50;63.30
9057;DHT22;4563;54.756;9.400;2022-08-07T05:38:45;16.40;63.30
9057;DHT22;4563;54.756;9.400;2022-08-07T05:41:12;16.40;63.10
9057;DHT22;4563;54.756;9.400;2022-08-07T05:43:40;16.40;63.20
9057;DHT22;4563;54.756;9.400;2022-08-07T05:46:09;16.40;63.20
9057;DHT22;4563;54.756;9.400;2022-08-07T05:48:37;16.40;63.30
9057;DHT22;4563;54.756;9.400;2022-08-07T05:51:07;16.40;63.40
9057;DHT22;4563;54.756;9.400;2022-08-07T05:53:35;16.30;63.20
9057;DHT22;4563;54.756;9.400;2022-08-07T05:56:02;16.30;63.20
9057;DHT22;4563;54.756;9.400;2022-08-07T05:58:31;16.30;63.30
9057;DHT22;4563;54.756;9.400;2022-08-07T06:00:59;16.30;63.40
9057;DHT22;4563;54.756;9.400;2022-08-07T06:03:28;16.30;63.60
9057;DHT22;4563;54.756;9.400;2022-08-07T06:05:57;16.30;63.70
9057;DHT22;4563;54.756;9.400;2022-08-07T06:08:26;16.30;63.60
9057;DHT22;4563;54.756;9.400;2022-08-07T06:10:53;16.40;63.70
9057;DHT22;4563;54.756;9.400;2022-08-07T06:13:21;16.30;63.70
9057;DHT22;4563;54.756;9.400;2022-08-07T06:15:48;16.30;63.80
9057;DHT22;4563;54.756;9.400;2022-08-07T06:18:15;16.30;63.90
9057;DHT22;4563;54.756;9.400;2022-08-07T06:20:43;16.40;64.30
9057;DHT22;4563;54.756;9.400;2022-08-07T06:23:11;16.30;64.20
9057;DHT22;4563;54.756;9.400;2022-08-07T06:25:40;16.40;64.30
9057;DHT22;4563;54.756;9.400;2022-08-07T06:28:08;16.40;64.40
9057;DHT22;4563;54.756;9.400;2022-08-07T06:30:36;16.40;64.30
9057;DHT22;4563;54.756;9.400;2022-08-07T06:33:05;16.40;64.40
9057;DHT22;4563;54.756;9.400;2022-08-07T06:35:34;16.40;64.50
9057;DHT22;4563;54.756;9.400;2022-08-07T06:38:01;16.50;64.60
9057;DHT22;4563;54.756;9.400;2022-08-07T06:40:29;16.50;64.60
9057;DHT22;4563;54.756;9.400;2022-08-07T06:43:02;16.50;64.60
9057;DHT22;4563;54.756;9.400;2022-08-07T06:45:31;16.50;64.80
9057;DHT22;4563;54.756;9.400;2022-08-07T06:48:00;16.50;64.80
9057;DHT22;4563;54.756;9.400;2022-08-07T06:50:32;16.50;64.90
9057;DHT22;4563;54.756;9.400;2022-08-07T06:53:00;16.50;65.10
9057;DHT22;4563;54.756;9.400;2022-08-07T06:55:30;16.60;65.30
9057;DHT22;4563;54.756;9.400;2022-08-07T06:57:58;16.60;65.50
9057;DHT22;4563;54.756;9.400;2022-08-07T07:00:31;16.60;65.50
9057;DHT22;4563;54.756;9.400;2022-08-07T07:03:00;16.70;65.50
9057;DHT22;4563;54.756;9.400;2022-08-07T07:05:27;16.70;65.20
9057;DHT22;4563;54.756;9.400;2022-08-07T07:07:54;16.70;66.30
9057;DHT22;4563;54.756;9.400;2022-08-07T07:10:27;16.70;65.40
9057;DHT22;4563;54.756;9.400;2022-08-07T07:12:56;16.80;65.30
9057;DHT22;4563;54.756;9.400;2022-08-07T07:15:27;16.80;65.70
9057;DHT22;4563;54.756;9.400;2022-08-07T07:18:00;16.90;65.90
9057;DHT22;4563;54.756;9.400;2022-08-07T07:20:32;16.90;66.00
9057;DHT22;4563;54.756;9.400;2022-08-07T07:23:01;17.00;66.00
9057;DHT22;4563;54.756;9.400;2022-08-07T07:25:28;17.00;65.40
9057;DHT22;4563;54.756;9.400;2022-08-07T07:27:59;17.10;65.90
9057;DHT22;4563;54.756;9.400;2022-08-07T07:30:31;17.10;65.60
9057;DHT22;4563;54.756;9.400;2022-08-07T07:33:01;17.20;66.20
9057;DHT22;4563;54.756;9.400;2022-08-07T07:35:28;17.20;66.30
9057;DHT22;4563;54.756;9.400;2022-08-07T07:37:57;17.30;66.50
9057;DHT22;4563;54.756;9.400;2022-08-07T07:40:27;17.40;66.80
9057;DHT22;4563;54.756;9.400;2022-08-07T07:42:56;17.40;66.90
9057;DHT22;4563;54.756;9.400;2022-08-07T07:45:28;17.50;67.10
9057;DHT22;4563;54.756;9.400;2022-08-07T07:47:56;17.60;67.50
9057;DHT22;4563;54.756;9.400;2022-08-07T07:50:25;17.60;67.70
9057;DHT22;4563;54.756;9.400;2022-08-07T07:52:53;17.80;68.20
9057;DHT22;4563;54.756;9.400;2022-08-07T07:55:21;17.80;68.10
9057;DHT22;4563;54.756;9.400;2022-08-07T07:57:49;18.00;68.00
9057;DHT22;4563;54.756;9.400;2022-08-07T08:00:17;18.10;67.80
9057;DHT22;4563;54.756;9.400;2022-08-07T08:02:48;18.20;67.60
9057;DHT22;4563;54.756;9.400;2022-08-07T08:05:17;18.30;67.20
9057;DHT22;4563;54.756;9.400;2022-08-07T08:07:44;18.40;67.90
9057;DHT22;4563;54.756;9.400;2022-08-07T08:10:13;18.50;67.00
9057;DHT22;4563;54.756;9.400;2022-08-07T08:20:45;18.80;66.40
9057;DHT22;4563;54.756;9.400;2022-08-07T08:23:14;18.90;66.50
9057;DHT22;4563;54.756;9.400;2022-08-07T08:26:02;18.90;66.20
9057;DHT22;4563;54.756;9.400;2022-08-07T08:28:49;19.00;66.00
9057;DHT22;4563;54.756;9.400;2022-08-07T08:31:20;19.10;65.80
9057;DHT22;4563;54.756;9.400;2022-08-07T08:33:51;19.10;65.70
9057;DHT22;4563;54.756;9.400;2022-08-07T08:36:25;19.20;65.60
9057;DHT22;4563;54.756;9.400;2022-08-07T08:38:53;19.20;65.30
9057;DHT22;4563;54.756;9.400;2022-08-07T08:41:26;19.30;65.60
9057;DHT22;4563;54.756;9.400;2022-08-07T08:44:01;19.40;65.50
9057;DHT22;4563;54.756;9.400;2022-08-07T08:46:35;19.50;65.30
9057;DHT22;4563;54.756;9.400;2022-08-07T08:49:11;19.50;65.20
9057;DHT22;4563;54.756;9.400;2022-08-07T08:51:53;19.60;65.20
9057;DHT22;4563;54.756;9.400;2022-08-07T08:54:27;19.70;64.60
9057;DHT22;4563;54.756;9.400;2022-08-07T08:56:58;19.80;65.20
9057;DHT22;4563;54.756;9.400;2022-08-07T08:59:32;19.90;65.10
9057;DHT22;4563;54.756;9.400;2022-08-07T09:02:12;20.00;64.70
9057;DHT22;4563;54.756;9.400;2022-08-07T09:04:48;20.00;64.20
9057;DHT22;4563;54.756;9.400;2022-08-07T09:07:23;20.10;64.50
9057;DHT22;4563;54.756;9.400;2022-08-07T09:10:00;20.20;64.00
9057;DHT22;4563;54.756;9.400;2022-08-07T09:12:47;20.30;63.80
9057;DHT22;4563;54.756;9.400;2022-08-07T09:15:35;20.50;63.20
9057;DHT22;4563;54.756;9.400;2022-08-07T09:18:15;20.50;63.10
9057;DHT22;4563;54.756;9.400;2022-08-07T09:20:49;20.70;63.20
9057;DHT22;4563;54.756;9.400;2022-08-07T09:23:30;20.80;63.10
9057;DHT22;4563;54.756;9.400;2022-08-07T09:26:09;21.00;62.40
9057;DHT22;4563;54.756;9.400;2022-08-07T09:28:40;21.10;62.10
9057;DHT22;4563;54.756;9.400;2022-08-07T09:31:15;21.20;61.70
9057;DHT22;4563;54.756;9.400;2022-08-07T09:34:04;21.40;61.10
9057;DHT22;4563;54.756;9.400;2022-08-07T09:36:35;21.50;60.50
9057;DHT22;4563;54.756;9.400;2022-08-07T09:39:19;21.60;60.50
9057;DHT22;4563;54.756;9.400;2022-08-07T09:41:56;21.70;60.20
9057;DHT22;4563;54.756;9.400;2022-08-07T09:44:39;21.80;60.00
9057;DHT22;4563;54.756;9.400;2022-08-07T09:47:14;21.90;59.60
9057;DHT22;4563;54.756;9.400;2022-08-07T09:49:52;21.90;59.10
9057;DHT22;4563;54.756;9.400;2022-08-07T09:52:28;22.00;58.80
9057;DHT22;4563;54.756;9.400;2022-08-07T09:55:03;22.10;58.80
9057;DHT22;4563;54.756;9.400;2022-08-07T09:57:49;22.10;58.90
9057;DHT22;4563;54.756;9.400;2022-08-07T10:00:20;22.20;58.90
9057;DHT22;4563;54.756;9.400;2022-08-07T10:03:00;22.30;58.90
9057;DHT22;4563;54.756;9.400;2022-08-07T10:05:54;22.40;58.40
9057;DHT22;4563;54.756;9.400;2022-08-07T10:09:02;22.40;58.00
9057;DHT22;4563;54.756;9.400;2022-08-07T10:11:58;22.50;57.90
9057;DHT22;4563;54.756;9.400;2022-08-07T10:17:49;22.70;57.80
9057;DHT22;4563;54.756;9.400;2022-08-07T10:20:23;22.70;57.60
9057;DHT22;4563;54.756;9.400;2022-08-07T10:23:08;22.70;57.30
9057;DHT22;4563;54.756;9.400;2022-08-07T10:25:48;22.80;57.20
9057;DHT22;4563;54.756;9.400;2022-08-07T10:28:35;22.90;57.20
9057;DHT22;4563;54.756;9.400;2022-08-07T10:31:14;22.90;57.20
9057;DHT22;4563;54.756;9.400;2022-08-07T10:33:53;23.00;57.10
9057;DHT22;4563;54.756;9.400;2022-08-07T10:36:31;23.10;57.00
9057;DHT22;4563;54.756;9.400;2022-08-07T10:39:07;23.20;57.00
9057;DHT22;4563;54.756;9.400;2022-08-07T10:41:39;23.30;56.80
9057;DHT22;4563;54.756;9.400;2022-08-07T10:44:15;23.30;56.70
9057;DHT22;4563;54.756;9.400;2022-08-07T10:46:49;23.40;56.70
9057;DHT22;4563;54.756;9.400;2022-08-07T10:49:22;23.40;56.50
9057;DHT22;4563;54.756;9.400;2022-08-07T10:51:56;23.50;56.50
9057;DHT22;4563;54.756;9.400;2022-08-07T10:59:58;23.60;56.10
9057;DHT22;4563;54.756;9.400;2022-08-07T11:02:33;23.70;56.50
9057;DHT22;4563;54.756;9.400;2022-08-07T11:05:13;23.70;55.80
9057;DHT22;4563;54.756;9.400;2022-08-07T11:07:49;23.70;55.90
9057;DHT22;4563;54.756;9.400;2022-08-07T11:10:19;23.80;56.10
9057;DHT22;4563;54.756;9.400;2022-08-07T11:12:55;23.80;56.00
9057;DHT22;4563;54.756;9.400;2022-08-07T11:15:27;23.80;56.00
9057;DHT22;4563;54.756;9.400;2022-08-07T11:18:01;23.80;55.80
9057;DHT22;4563;54.756;9.400;2022-08-07T11:20:36;23.80;55.70
9057;DHT22;4563;54.756;9.400;2022-08-07T11:23:10;23.80;55.70
9057;DHT22;4563;54.756;9.400;2022-08-07T11:25:42;23.80;55.80
9057;DHT22;4563;54.756;9.400;2022-08-07T11:28:15;23.80;55.60
9057;DHT22;4563;54.756;9.400;2022-08-07T11:30:50;23.80;55.60
9057;DHT22;4563;54.756;9.400;2022-08-07T11:33:23;23.80;55.50
9057;DHT22;4563;54.756;9.400;2022-08-07T11:36:00;23.80;55.30
9057;DHT22;4563;54.756;9.400;2022-08-07T11:38:38;23.80;55.20
9057;DHT22;4563;54.756;9.400;2022-08-07T11:41:11;23.80;55.30
9057;DHT22;4563;54.756;9.400;2022-08-07T11:43:48;23.90;55.20
9057;DHT22;4563;54.756;9.400;2022-08-07T11:46:35;23.80;55.20
9057;DHT22;4563;54.756;9.400;2022-08-07T11:49:24;23.90;55.80
9057;DHT22;4563;54.756;9.400;2022-08-07T11:52:05;23.90;55.80
9057;DHT22;4563;54.756;9.400;2022-08-07T11:54:45;23.90;55.50
9057;DHT22;4563;54.756;9.400;2022-08-07T11:57:21;24.00;55.50
9057;DHT22;4563;54.756;9.400;2022-08-07T12:00:05;24.00;55.30
9057;DHT22;4563;54.756;9.400;2022-08-07T12:06:01;24.00;55.60
9057;DHT22;4563;54.756;9.400;2022-08-07T12:08:31;24.00;55.30
9057;DHT22;4563;54.756;9.400;2022-08-07T12:11:04;24.00;55.20
9057;DHT22;4563;54.756;9.400;2022-08-07T12:13:39;24.00;54.90
9057;DHT22;4563;54.756;9.400;2022-08-07T12:16:12;24.00;55.00
9057;DHT22;4563;54.756;9.400;2022-08-07T12:18:47;24.00;55.00
9057;DHT22;4563;54.756;9.400;2022-08-07T12:21:34;24.10;55.10
9057;DHT22;4563;54.756;9.400;2022-08-07T12:24:07;24.10;55.70
9057;DHT22;4563;54.756;9.400;2022-08-07T12:26:40;24.00;55.10
9057;DHT22;4563;54.756;9.400;2022-08-07T12:29:10;24.10;55.10
9057;DHT22;4563;54.756;9.400;2022-08-07T12:31:43;24.00;54.80
9057;DHT22;4563;54.756;9.400;2022-08-07T12:34:13;24.00;54.80
9057;DHT22;4563;54.756;9.400;2022-08-07T12:36:42;24.00;54.50
9057;DHT22;4563;54.756;9.400;2022-08-07T12:39:10;24.00;54.50
9057;DHT22;4563;54.756;9.400;2022-08-07T12:41:38;24.00;54.50
9057;DHT22;4563;54.756;9.400;2022-08-07T12:44:09;24.00;54.50
9057;DHT22;4563;54.756;9.400;2022-08-07T12:46:47;24.00;54.40
9057;DHT22;4563;54.756;9.400;2022-08-07T12:49:23;24.00;54.60
9057;DHT22;4563;54.756;9.400;2022-08-07T12:52:00;24.00;54.50
9057;DHT22;4563;54.756;9.400;2022-08-07T12:54:33;24.00;54.50
9057;DHT22;4563;54.756;9.400;2022-08-07T12:57:04;23.90;54.40
9057;DHT22;4563;54.756;9.400;2022-08-07T12:59:34;23.90;54.40
9057;DHT22;4563;54.756;9.400;2022-08-07T13:02:23;23.90;54.30
9057;DHT22;4563;54.756;9.400;2022-08-07T13:05:08;23.90;54.90
9057;DHT22;4563;54.756;9.400;2022-08-07T13:08:00;23.90;54.50
9057;DHT22;4563;54.756;9.400;2022-08-07T13:10:40;23.90;54.60
9057;DHT22;4563;54.756;9.400;2022-08-07T13:13:24;23.90;54.40
9057;DHT22;4563;54.756;9.400;2022-08-07T13:15:58;23.90;54.40
9057;DHT22;4563;54.756;9.400;2022-08-07T13:18:36;23.90;54.10
9057;DHT22;4563;54.756;9.400;2022-08-07T13:21:11;23.90;53.90
9057;DHT22;4563;54.756;9.400;2022-08-07T13:23:47;24.00;53.60
9057;DHT22;4563;54.756;9.400;2022-08-07T13:26:23;24.00;53.50
9057;DHT22;4563;54.756;9.400;2022-08-07T13:28:58;24.00;53.40
9057;DHT22;4563;54.756;9.400;2022-08-07T13:31:32;24.00;53.30
9057;DHT22;4563;54.756;9.400;2022-08-07T13:34:10;24.00;53.10
9057;DHT22;4563;54.756;9.400;2022-08-07T13:36:41;24.00;53.30
9057;DHT22;4563;54.756;9.400;2022-08-07T13:39:20;24.10;53.20
9057;DHT22;4563;54.756;9.400;2022-08-07T13:41:49;24.10;53.70
9057;DHT22;4563;54.756;9.400;2022-08-07T13:44:20;24.10;53.20
9057;DHT22;4563;54.756;9.400;2022-08-07T13:46:51;24.20;53.50
9057;DHT22;4563;54.756;9.400;2022-08-07T13:49:21;24.20;53.40
9057;DHT22;4563;54.756;9.400;2022-08-07T13:51:50;24.20;53.20
9057;DHT22;4563;54.756;9.400;2022-08-07T13:54:26;24.30;52.70
9057;DHT22;4563;54.756;9.400;2022-08-07T13:56:56;24.30;52.80
9057;DHT22;4563;54.756;9.400;2022-08-07T13:59:27;24.30;52.60
9057;DHT22;4563;54.756;9.400;2022-08-07T14:01:59;24.40;52.80
9057;DHT22;4563;54.756;9.400;2022-08-07T14:04:35;24.40;52.60
9057;DHT22;4563;54.756;9.400;2022-08-07T14:07:05;24.40;52.50
9057;DHT22;4563;54.756;9.400;2022-08-07T14:09:36;24.50;52.60
9057;DHT22;4563;54.756;9.400;2022-08-07T14:12:08;24.50;52.40
9057;DHT22;4563;54.756;9.400;2022-08-07T14:14:41;24.40;52.00
9057;DHT22;4563;54.756;9.400;2022-08-07T14:17:11;24.40;51.70
9057;DHT22;4563;54.756;9.400;2022-08-07T14:19:48;24.40;51.70
9057;DHT22;4563;54.756;9.400;2022-08-07T14:22:19;24.40;51.90
9057;DHT22;4563;54.756;9.400;2022-08-07T14:24:55;24.40;52.00
9057;DHT22;4563;54.756;9.400;2022-08-07T14:27:28;24.30;52.10
9057;DHT22;4563;54.756;9.400;2022-08-07T14:30:02;24.40;52.50
9057;DHT22;4563;54.756;9.400;2022-08-07T14:32:38;24.30;52.30
9057;DHT22;4563;54.756;9.400;2022-08-07T14:35:09;24.30;52.60
9057;DHT22;4563;54.756;9.400;2022-08-07T14:37:37;24.30;52.30
9057;DHT22;4563;54.756;9.400;2022-08-07T14:40:12;24.30;52.10
9057;DHT22;4563;54.756;9.400;2022-08-07T14:42:40;24.20;52.50
9057;DHT22;4563;54.756;9.400;2022-08-07T14:45:09;24.20;52.10
9057;DHT22;4563;54.756;9.400;2022-08-07T14:47:39;24.20;52.20
9057;DHT22;4563;54.756;9.400;2022-08-07T14:50:08;24.20;52.30
9057;DHT22;4563;54.756;9.400;2022-08-07T14:52:43;24.10;52.50
9057;DHT22;4563;54.756;9.400;2022-08-07T14:55:13;24.00;52.60
9057;DHT22;4563;54.756;9.400;2022-08-07T14:57:46;24.00;52.50
9057;DHT22;4563;54.756;9.400;2022-08-07T15:00:14;24.00;53.00
9057;DHT22;4563;54.756;9.400;2022-08-07T15:02:44;24.00;52.90
9057;DHT22;4563;54.756;9.400;2022-08-07T15:05:14;23.90;52.90
9057;DHT22;4563;54.756;9.400;2022-08-07T15:07:44;23.90;53.10
9057;DHT22;4563;54.756;9.400;2022-08-07T15:10:18;23.80;52.90
9057;DHT22;4563;54.756;9.400;2022-08-07T15:12:48;23.80;53.40
9057;DHT22;4563;54.756;9.400;2022-08-07T15:15:23;23.80;53.30
9057;DHT22;4563;54.756;9.400;2022-08-07T15:17:55;23.80;53.70
9057;DHT22;4563;54.756;9.400;2022-08-07T15:20:27;23.80;53.60
9057;DHT22;4563;54.756;9.400;2022-08-07T15:22:59;23.70;53.60
9057;DHT22;4563;54.756;9.400;2022-08-07T15:25:32;23.70;53.80
9057;DHT22;4563;54.756;9.400;2022-08-07T15:28:02;23.60;54.10
9057;DHT22;4563;54.756;9.400;2022-08-07T15:30:30;23.60;54.00
9057;DHT22;4563;54.756;9.400;2022-08-07T15:32:59;23.60;53.80
9057;DHT22;4563;54.756;9.400;2022-08-07T15:35:27;23.60;53.80
9057;DHT22;4563;54.756;9.400;2022-08-07T15:37:58;23.60;53.80
9057;DHT22;4563;54.756;9.400;2022-08-07T15:40:28;23.60;54.10
9057;DHT22;4563;54.756;9.400;2022-08-07T15:43:03;23.60;54.10
9057;DHT22;4563;54.756;9.400;2022-08-07T15:45:35;23.60;54.10
9057;DHT22;4563;54.756;9.400;2022-08-07T15:48:07;23.60;54.00
9057;DHT22;4563;54.756;9.400;2022-08-07T15:50:40;23.50;53.90
9057;DHT22;4563;54.756;9.400;2022-08-07T15:53:09;23.50;53.40
9057;DHT22;4563;54.756;9.400;2022-08-07T15:55:41;23.50;53.40
9057;DHT22;4563;54.756;9.400;2022-08-07T15:58:10;23.50;53.60
9057;DHT22;4563;54.756;9.400;2022-08-07T16:00:39;23.50;53.90
9057;DHT22;4563;54.756;9.400;2022-08-07T16:03:12;23.50;53.40
9057;DHT22;4563;54.756;9.400;2022-08-07T16:05:44;23.50;53.70
9057;DHT22;4563;54.756;9.400;2022-08-07T16:08:15;23.40;53.70
9057;DHT22;4563;54.756;9.400;2022-08-07T16:10:46;23.40;53.40
9057;DHT22;4563;54.756;9.400;2022-08-07T16:16:48;23.40;54.80
9057;DHT22;4563;54.756;9.400;2022-08-07T16:19:43;23.30;53.90
9057;DHT22;4563;54.756;9.400;2022-08-07T16:25:27;23.30;54.40
9057;DHT22;4563;54.756;9.400;2022-08-07T16:28:06;23.30;54.00
9057;DHT22;4563;54.756;9.400;2022-08-07T16:30:47;23.20;53.80
9057;DHT22;4563;54.756;9.400;2022-08-07T16:33:17;23.20;53.90
9057;DHT22;4563;54.756;9.400;2022-08-07T16:35:46;23.10;53.30
9057;DHT22;4563;54.756;9.400;2022-08-07T16:38:41;23.20;53.50
9057;DHT22;4563;54.756;9.400;2022-08-07T16:44:47;23.10;54.40
9057;DHT22;4563;54.756;9.400;2022-08-07T16:50:49;23.10;54.30
9057;DHT22;4563;54.756;9.400;2022-08-07T16:53:42;23.00;54.90
9057;DHT22;4563;54.756;9.400;2022-08-07T16:56:17;23.00;54.00
9057;DHT22;4563;54.756;9.400;2022-08-07T16:58:54;23.00;53.60
9057;DHT22;4563;54.756;9.400;2022-08-07T17:01:35;23.00;53.60
9057;DHT22;4563;54.756;9.400;2022-08-07T17:04:10;23.00;54.00
9057;DHT22;4563;54.756;9.400;2022-08-07T17:06:53;22.90;53.60
9057;DHT22;4563;54.756;9.400;2022-08-07T17:09:30;22.90;54.20
9057;DHT22;4563;54.756;9.400;2022-08-07T17:12:07;22.90;53.60
9057;DHT22;4563;54.756;9.400;2022-08-07T17:14:43;22.90;53.50
9057;DHT22;4563;54.756;9.400;2022-08-07T17:17:27;22.90;53.60
9057;DHT22;4563;54.756;9.400;2022-08-07T17:20:02;22.90;54.10
9057;DHT22;4563;54.756;9.400;2022-08-07T17:22:35;22.90;53.60
9057;DHT22;4563;54.756;9.400;2022-08-07T17:25:06;22.80;53.50